Time;durP1;ratioP1;P1;durP2;ratioP2;P2;SDS_P1;SDS_P2;PMS_P1;PMS_P2;Temp;Humidity;BMP_temperature;BMP_pressure;BME280_temperature;BME280_humidity;BME280_pressure;Samples;Min_cycle;Max_cycle;Signal;HPM_P1;HPM_P2
2021/09/06 00:19:02;;;;;;;4.85;2.90;;;;;;;;;;4289279;33;20237;-62
2021/09/06 00:21:31;;;;;;;6.60;3.08;;;;;;;;;;4292107;33;20143;-62
2021/09/06 00:23:57;;;;;;;7.65;3.22;;;;;;;;;;4300034;33;20223;-62
2021/09/06 00:26:23;;;;;;;5.60;3.45;;;;;;;;;;4305104;33;20143;-62
2021/09/06 00:28:48;;;;;;;9.77;3.42;;;;;;;;;;4291939;33;20112;-62
2021/09/06 00:31:15;;;;;;;6.35;3.25;;;;;;;;;;4290483;33;20151;-62
2021/09/06 00:33:42;;;;;;;5.37;3.47;;;;;;;;;;4290314;33;20104;-62
2021/09/06 00:36:08;;;;;;;6.45;3.70;;;;;;;;;;4290420;33;20115;-63
2021/09/06 00:38:34;;;;;;;7.03;3.80;;;;;;;;;;4290489;33;20529;-63
2021/09/06 00:41:00;;;;;;;5.05;3.00;;;;;;;;;;4290702;33;20129;-62
2021/09/06 00:43:26;;;;;;;5.10;3.12;;;;;;;;;;4290359;33;20120;-63
2021/09/06 00:45:51;;;;;;;7.15;3.65;;;;;;;;;;4289164;33;20127;-62
2021/09/06 00:48:18;;;;;;;11.40;4.25;;;;;;;;;;4290437;33;20130;-62
2021/09/06 00:50:47;;;;;;;6.28;3.15;;;;;;;;;;4290376;33;20644;-62
2021/09/06 00:53:13;;;;;;;8.50;3.40;;;;;;;;;;4288657;33;20100;-62
2021/09/06 00:55:39;;;;;;;5.12;3.12;;;;;;;;;;4276963;33;20142;-63
2021/09/06 00:58:05;;;;;;;8.25;2.92;;;;;;;;;;4289205;33;20198;-62
2021/09/06 01:00:31;;;;;;;3.67;2.40;;;;;;;;;;4290303;33;20131;-63
2021/09/06 01:02:57;;;;;;;2.85;2.30;;;;;;;;;;4290162;33;20123;-62
2021/09/06 01:05:23;;;;;;;6.57;2.40;;;;;;;;;;4290325;33;20310;-62
2021/09/06 01:07:48;;;;;;;5.15;2.47;;;;;;;;;;4290319;33;20197;-63
2021/09/06 01:10:14;;;;;;;3.40;2.50;;;;;;;;;;4289965;33;20521;-63
2021/09/06 01:12:41;;;;;;;3.33;2.00;;;;;;;;;;4290444;33;20136;-63
2021/09/06 01:15:08;;;;;;;3.03;2.53;;;;;;;;;;4290092;33;20451;-63
2021/09/06 01:17:34;;;;;;;2.72;2.08;;;;;;;;;;4288730;33;20119;-63
2021/09/06 01:20:00;;;;;;;3.50;2.85;;;;;;;;;;4290132;33;20120;-63
2021/09/06 01:22:26;;;;;;;4.35;2.60;;;;;;;;;;4290470;33;20142;-63
2021/09/06 01:24:52;;;;;;;3.47;2.50;;;;;;;;;;4290061;33;20546;-63
2021/09/06 01:27:18;;;;;;;4.50;3.15;;;;;;;;;;4290234;33;20220;-63
2021/09/06 01:29:44;;;;;;;3.62;2.60;;;;;;;;;;4289915;33;20201;-63
2021/09/06 01:32:10;;;;;;;3.97;2.80;;;;;;;;;;4289876;33;20115;-63
2021/09/06 01:34:36;;;;;;;5.00;2.62;;;;;;;;;;4289983;33;20092;-63
2021/09/06 01:37:02;;;;;;;4.57;2.97;;;;;;;;;;4290307;33;20121;-63
2021/09/06 01:39:28;;;;;;;3.92;2.72;;;;;;;;;;4276561;33;20120;-63
2021/09/06 01:41:54;;;;;;;5.95;3.35;;;;;;;;;;4289931;33;20107;-63
2021/09/06 01:44:20;;;;;;;4.70;2.90;;;;;;;;;;4276638;33;20102;-63
2021/09/06 01:46:46;;;;;;;3.37;2.35;;;;;;;;;;4276580;33;20116;-64
2021/09/06 01:49:12;;;;;;;6.05;3.10;;;;;;;;;;4290078;33;20115;-64
2021/09/06 01:51:38;;;;;;;4.35;2.97;;;;;;;;;;4289797;33;20131;-63
2021/09/06 01:54:04;;;;;;;4.50;2.45;;;;;;;;;;4286726;33;20115;-63
2021/09/06 01:56:30;;;;;;;3.72;2.80;;;;;;;;;;4304140;33;20214;-63
2021/09/06 01:58:56;;;;;;;4.15;2.62;;;;;;;;;;4304365;33;20126;-63
2021/09/06 02:01:22;;;;;;;4.32;2.55;;;;;;;;;;4302790;33;20092;-63
2021/09/06 02:03:48;;;;;;;4.15;2.90;;;;;;;;;;4304072;33;20521;-63
2021/09/06 02:06:14;;;;;;;3.90;2.30;;;;;;;;;;4304306;33;20102;-63
2021/09/06 02:08:39;;;;;;;5.20;2.33;;;;;;;;;;4304241;33;20147;-65
2021/09/06 02:11:05;;;;;;;4.60;2.72;;;;;;;;;;4304451;33;20521;-63
2021/09/06 02:13:31;;;;;;;4.95;2.40;;;;;;;;;;4304083;33;20138;-63
2021/09/06 02:15:57;;;;;;;2.90;2.25;;;;;;;;;;4304323;33;20118;-65
2021/09/06 02:18:23;;;;;;;3.60;2.37;;;;;;;;;;4303821;33;20112;-63
2021/09/06 02:20:49;;;;;;;4.30;2.60;;;;;;;;;;4294078;33;20111;-64
2021/09/06 02:23:14;;;;;;;3.12;2.30;;;;;;;;;;4289502;33;20190;-64
2021/09/06 02:25:40;;;;;;;6.87;2.35;;;;;;;;;;4289868;33;20119;-64
2021/09/06 02:28:06;;;;;;;2.70;2.35;;;;;;;;;;4289618;33;20147;-64
2021/09/06 02:30:32;;;;;;;2.95;2.45;;;;;;;;;;4289513;33;20198;-64
2021/09/06 02:32:58;;;;;;;2.37;2.10;;;;;;;;;;4289468;33;20193;-64
2021/09/06 02:35:24;;;;;;;3.05;2.35;;;;;;;;;;4289397;33;20201;-64
2021/09/06 02:37:49;;;;;;;3.03;2.50;;;;;;;;;;4289565;33;20132;-65
2021/09/06 02:40:16;;;;;;;3.42;2.80;;;;;;;;;;4288882;33;20164;-64
2021/09/06 02:42:43;;;;;;;4.55;2.45;;;;;;;;;;4292965;33;20098;-64
2021/09/06 02:45:09;;;;;;;2.05;1.85;;;;;;;;;;4289521;33;20095;-64
2021/09/06 02:47:35;;;;;;;3.97;2.58;;;;;;;;;;4289108;33;20523;-64
2021/09/06 02:50:03;;;;;;;2.70;2.08;;;;;;;;;;4289530;33;20108;-63
2021/09/06 02:52:29;;;;;;;2.58;2.00;;;;;;;;;;4289441;33;20197;-65
2021/09/06 02:54:55;;;;;;;6.90;2.90;;;;;;;;;;4289235;33;20562;-64
2021/09/06 02:57:21;;;;;;;5.70;2.40;;;;;;;;;;4289267;33;20123;-64
2021/09/06 02:59:47;;;;;;;4.35;2.22;;;;;;;;;;4289351;33;20207;-64
2021/09/06 03:02:13;;;;;;;3.25;2.50;;;;;;;;;;4287733;33;20127;-63
2021/09/06 03:04:39;;;;;;;5.18;2.78;;;;;;;;;;4287424;33;20128;-64
2021/09/06 03:07:05;;;;;;;3.92;2.47;;;;;;;;;;4283500;33;20123;-64
2021/09/06 03:09:30;;;;;;;4.95;2.40;;;;;;;;;;4284335;33;20573;-63
2021/09/06 03:11:56;;;;;;;4.62;2.40;;;;;;;;;;4283700;33;20138;-63
2021/09/06 03:14:23;;;;;;;4.85;2.70;;;;;;;;;;4284267;33;20520;-63
2021/09/06 03:16:50;;;;;;;3.62;2.35;;;;;;;;;;4284164;33;20545;-63
2021/09/06 03:19:16;;;;;;;3.80;2.55;;;;;;;;;;4284316;33;20468;-63
2021/09/06 03:21:42;;;;;;;4.40;2.72;;;;;;;;;;4282848;33;20099;-65
2021/09/06 03:24:08;;;;;;;7.75;2.55;;;;;;;;;;4285030;33;20122;-65
2021/09/06 03:26:34;;;;;;;7.00;2.90;;;;;;;;;;4286985;33;20665;-64
2021/09/06 03:29:00;;;;;;;4.57;2.53;;;;;;;;;;4288396;33;20112;-64
2021/09/06 03:31:26;;;;;;;7.28;2.58;;;;;;;;;;4287721;33;20123;-64
2021/09/06 03:33:52;;;;;;;6.87;2.67;;;;;;;;;;4289677;33;20541;-64
2021/09/06 03:36:19;;;;;;;4.97;2.58;;;;;;;;;;4288962;33;20466;-64
2021/09/06 03:38:46;;;;;;;5.65;3.10;;;;;;;;;;4297965;33;20104;-64
2021/09/06 03:41:12;;;;;;;6.22;3.75;;;;;;;;;;4288030;33;20112;-64
2021/09/06 03:43:38;;;;;;;13.77;3.30;;;;;;;;;;4287356;33;20111;-64
2021/09/06 03:46:04;;;;;;;7.00;3.37;;;;;;;;;;4290879;33;20115;-64
2021/09/06 03:48:29;;;;;;;48.40;4.25;;;;;;;;;;4290848;33;20514;-66
2021/09/06 03:50:55;;;;;;;8.43;3.53;;;;;;;;;;4289338;33;20111;-64
2021/09/06 03:53:21;;;;;;;6.87;3.22;;;;;;;;;;4276761;33;20123;-64
2021/09/06 03:55:47;;;;;;;7.12;3.53;;;;;;;;;;4290812;33;20114;-64
2021/09/06 03:58:13;;;;;;;7.70;3.97;;;;;;;;;;4291073;33;20116;-64
2021/09/06 04:00:39;;;;;;;7.53;3.80;;;;;;;;;;4290763;33;20534;-64
2021/09/06 04:03:05;;;;;;;10.30;3.90;;;;;;;;;;4291244;33;20201;-64
2021/09/06 04:05:31;;;;;;;7.95;4.05;;;;;;;;;;4288235;33;20096;-65
2021/09/06 04:07:56;;;;;;;11.70;4.07;;;;;;;;;;4289348;33;20562;-64
2021/09/06 04:10:22;;;;;;;8.48;3.92;;;;;;;;;;4289627;33;20111;-64
2021/09/06 04:12:48;;;;;;;3.90;3.00;;;;;;;;;;4289554;33;20132;-63
2021/09/06 04:15:14;;;;;;;5.60;3.28;;;;;;;;;;4288956;33;20383;-64
2021/09/06 04:17:40;;;;;;;8.23;3.20;;;;;;;;;;4287803;33;20128;-66
2021/09/06 04:20:06;;;;;;;6.18;3.30;;;;;;;;;;4289681;33;20088;-66
2021/09/06 04:22:32;;;;;;;8.73;3.37;;;;;;;;;;4289390;33;20558;-68
2021/09/06 04:25:00;;;;;;;7.22;3.37;;;;;;;;;;4305315;33;20108;-65
2021/09/06 04:27:26;;;;;;;5.80;2.53;;;;;;;;;;4290541;33;20112;-64
2021/09/06 04:29:51;;;;;;;5.40;3.00;;;;;;;;;;4290619;33;20116;-63
2021/09/06 04:32:17;;;;;;;15.45;3.40;;;;;;;;;;4289369;33;20123;-64
2021/09/06 04:34:44;;;;;;;5.12;3.03;;;;;;;;;;4288295;33;20586;-64
2021/09/06 04:37:10;;;;;;;4.22;2.78;;;;;;;;;;4288233;33;20139;-64
2021/09/06 04:39:35;;;;;;;11.60;2.95;;;;;;;;;;4288295;33;20107;-64
2021/09/06 04:42:01;;;;;;;3.53;2.50;;;;;;;;;;4288702;33;20115;-64
2021/09/06 04:44:27;;;;;;;4.03;2.80;;;;;;;;;;4287954;33;20456;-63
2021/09/06 04:46:53;;;;;;;3.28;2.50;;;;;;;;;;4288980;33;20111;-63
2021/09/06 04:49:19;;;;;;;3.30;2.30;;;;;;;;;;4290401;33;20549;-63
2021/09/06 04:51:45;;;;;;;9.48;2.50;;;;;;;;;;4290457;33;20134;-64
2021/09/06 04:54:10;;;;;;;7.68;2.30;;;;;;;;;;4290603;33;20112;-63
2021/09/06 04:56:36;;;;;;;7.40;2.50;;;;;;;;;;4290304;33;20103;-64
2021/09/06 04:59:03;;;;;;;4.10;2.30;;;;;;;;;;4290308;33;20443;-63
2021/09/06 05:01:29;;;;;;;3.58;2.35;;;;;;;;;;4290597;33;20209;-64
2021/09/06 05:03:55;;;;;;;3.83;2.50;;;;;;;;;;4290559;33;20416;-63
2021/09/06 05:06:21;;;;;;;3.97;2.33;;;;;;;;;;4288847;33;20096;-64
2021/09/06 05:08:47;;;;;;;3.85;2.50;;;;;;;;;;4290096;33;20095;-63
2021/09/06 05:11:13;;;;;;;6.30;2.50;;;;;;;;;;4290459;33;20100;-63
2021/09/06 05:13:38;;;;;;;5.82;2.10;;;;;;;;;;4288615;33;20110;-63
2021/09/06 05:16:04;;;;;;;3.42;2.20;;;;;;;;;;4289789;33;20664;-63
2021/09/06 05:18:30;;;;;;;3.62;2.55;;;;;;;;;;4289980;33;20456;-67
2021/09/06 05:20:56;;;;;;;3.47;2.20;;;;;;;;;;4289983;33;20199;-63
2021/09/06 05:23:22;;;;;;;2.37;2.10;;;;;;;;;;4289944;33;20197;-63
2021/09/06 05:25:48;;;;;;;11.85;3.75;;;;;;;;;;4290042;33;20100;-66
2021/09/06 05:28:14;;;;;;;4.20;2.10;;;;;;;;;;4288618;33;20107;-65
2021/09/06 05:30:40;;;;;;;3.47;2.47;;;;;;;;;;4288531;33;20111;-65
2021/09/06 05:33:06;;;;;;;6.07;2.58;;;;;;;;;;4288762;33;20570;-65
2021/09/06 05:35:32;;;;;;;11.30;2.80;;;;;;;;;;4290194;33;20112;-65
2021/09/06 05:37:57;;;;;;;2.95;2.10;;;;;;;;;;4289739;33;20213;-65
2021/09/06 05:40:23;;;;;;;2.78;2.20;;;;;;;;;;4289815;33;20205;-65
2021/09/06 05:42:49;;;;;;;12.55;3.55;;;;;;;;;;4290163;33;20131;-65
2021/09/06 05:45:15;;;;;;;4.40;3.08;;;;;;;;;;4287402;33;20092;-67
2021/09/06 05:47:41;;;;;;;5.18;3.60;;;;;;;;;;4288567;33;20195;-66
2021/09/06 05:50:07;;;;;;;5.30;3.03;;;;;;;;;;4288570;33;20205;-66
2021/09/06 05:52:33;;;;;;;7.18;2.97;;;;;;;;;;4288702;33;20529;-65
2021/09/06 05:54:59;;;;;;;13.60;3.28;;;;;;;;;;4288421;33;20176;-65
2021/09/06 05:57:25;;;;;;;6.18;3.40;;;;;;;;;;4287663;33;20119;-66
2021/09/06 05:59:51;;;;;;;6.35;3.17;;;;;;;;;;4288461;33;20531;-67
2021/09/06 06:02:17;;;;;;;5.37;3.45;;;;;;;;;;4298764;33;20211;-66
2021/09/06 06:04:43;;;;;;;18.02;4.15;;;;;;;;;;4288386;33;20097;-66
2021/09/06 06:07:09;;;;;;;4.05;2.67;;;;;;;;;;4288512;33;20149;-72
2021/09/06 06:09:35;;;;;;;5.70;3.00;;;;;;;;;;4288368;33;20139;-72
2021/09/06 06:12:01;;;;;;;9.10;2.92;;;;;;;;;;4288428;33;20503;-66
2021/09/06 06:14:27;;;;;;;8.52;3.30;;;;;;;;;;4287997;33;20138;-65
2021/09/06 06:16:53;;;;;;;6.47;2.78;;;;;;;;;;4283560;33;20197;-65
2021/09/06 06:19:18;;;;;;;3.53;2.65;;;;;;;;;;4286971;33;20111;-65
2021/09/06 06:21:44;;;;;;;3.78;2.45;;;;;;;;;;4282642;33;20118;-64
2021/09/06 06:24:10;;;;;;;3.75;2.60;;;;;;;;;;4282313;33;20150;-64
2021/09/06 06:26:36;;;;;;;3.75;2.50;;;;;;;;;;4280970;33;20191;-69
2021/09/06 06:29:02;;;;;;;5.28;2.60;;;;;;;;;;4284091;33;20483;-67
2021/09/06 06:31:27;;;;;;;3.92;2.83;;;;;;;;;;4288371;33;20120;-64
2021/09/06 06:33:54;;;;;;;4.18;2.28;;;;;;;;;;4288209;33;20096;-64
2021/09/06 06:36:20;;;;;;;3.92;2.05;;;;;;;;;;4287669;33;20218;-66
2021/09/06 06:38:48;;;;;;;7.65;3.00;;;;;;;;;;4287164;33;20146;-66
2021/09/06 06:41:16;;;;;;;2.85;2.00;;;;;;;;;;4289098;33;20112;-65
2021/09/06 06:43:42;;;;;;;4.22;1.98;;;;;;;;;;4288773;33;20120;-65
2021/09/06 06:46:08;;;;;;;3.90;2.37;;;;;;;;;;4289015;33;20164;-65
2021/09/06 06:48:34;;;;;;;6.37;2.60;;;;;;;;;;4288716;33;20140;-72
2021/09/06 06:51:00;;;;;;;2.40;2.10;;;;;;;;;;4299741;33;20550;-65
2021/09/06 06:53:25;;;;;;;4.12;2.33;;;;;;;;;;4289324;33;20126;-65
2021/09/06 06:55:51;;;;;;;4.18;2.20;;;;;;;;;;4289073;33;20107;-67
2021/09/06 06:58:17;;;;;;;3.22;2.17;;;;;;;;;;4288647;33;20115;-75
2021/09/06 07:00:43;;;;;;;2.95;1.90;;;;;;;;;;4289274;33;20134;-68
2021/09/06 07:03:09;;;;;;;2.50;1.70;;;;;;;;;;4291058;33;20138;-67
2021/09/06 07:05:35;;;;;;;2.87;1.87;;;;;;;;;;4291679;33;20645;-67
2021/09/06 07:08:01;;;;;;;6.47;2.80;;;;;;;;;;4294226;33;20224;-62
2021/09/06 07:10:27;;;;;;;5.97;2.22;;;;;;;;;;4288847;33;20115;-63
2021/09/06 07:12:53;;;;;;;2.45;1.87;;;;;;;;;;4288972;33;20116;-63
2021/09/06 07:15:19;;;;;;;4.65;2.50;;;;;;;;;;4287275;33;20142;-63
2021/09/06 07:17:45;;;;;;;3.37;2.40;;;;;;;;;;4292142;33;20118;-63
2021/09/06 07:20:11;;;;;;;3.83;2.40;;;;;;;;;;4292264;33;20499;-63
2021/09/06 07:22:37;;;;;;;5.07;2.40;;;;;;;;;;4288579;33;20444;-63
2021/09/06 07:25:04;;;;;;;2.62;2.30;;;;;;;;;;4288434;33;20115;-63
2021/09/06 07:27:29;;;;;;;3.20;1.98;;;;;;;;;;4287990;33;20550;-63
2021/09/06 07:29:55;;;;;;;5.85;2.60;;;;;;;;;;4286824;33;20096;-62
2021/09/06 07:32:21;;;;;;;4.68;2.40;;;;;;;;;;4291492;33;20259;-62
2021/09/06 07:34:47;;;;;;;3.37;2.20;;;;;;;;;;4292590;33;20115;-62
2021/09/06 07:37:13;;;;;;;3.53;2.72;;;;;;;;;;4289197;33;20134;-62
2021/09/06 07:39:39;;;;;;;5.10;2.58;;;;;;;;;;4288149;33;20131;-70
2021/09/06 07:42:05;;;;;;;3.87;2.37;;;;;;;;;;4288187;33;20110;-64
2021/09/06 07:44:31;;;;;;;6.95;3.95;;;;;;;;;;4288347;33;20451;-64
2021/09/06 07:46:57;;;;;;;3.75;2.55;;;;;;;;;;4290010;33;20232;-67
2021/09/06 07:49:23;;;;;;;9.27;3.10;;;;;;;;;;4287695;33;20096;-69
2021/09/06 07:51:52;;;;;;;8.90;3.58;;;;;;;;;;4262954;33;20134;-63
2021/09/06 07:54:22;;;;;;;5.45;3.35;;;;;;;;;;4295755;33;20115;-63
2021/09/06 07:56:51;;;;;;;4.35;3.42;;;;;;;;;;4290785;33;20122;-64
2021/09/06 07:59:17;;;;;;;5.93;2.65;;;;;;;;;;4282258;33;20101;-63
2021/09/06 08:01:44;;;;;;;6.22;3.40;;;;;;;;;;4287319;33;20116;-64
2021/09/06 08:04:10;;;;;;;9.55;5.10;;;;;;;;;;4287876;33;20182;-64
2021/09/06 08:06:36;;;;;;;5.32;3.20;;;;;;;;;;4286104;33;20222;-64
2021/09/06 08:09:02;;;;;;;7.20;3.17;;;;;;;;;;4288192;33;20107;-63
2021/09/06 08:11:28;;;;;;;7.78;2.90;;;;;;;;;;4287882;33;20095;-64
2021/09/06 08:13:54;;;;;;;5.37;2.67;;;;;;;;;;4286294;33;20092;-63
2021/09/06 08:16:20;;;;;;;5.05;2.58;;;;;;;;;;4286297;33;20104;-64
2021/09/06 08:18:46;;;;;;;8.38;2.47;;;;;;;;;;4286167;33;20142;-65
2021/09/06 08:21:12;;;;;;;6.87;2.37;;;;;;;;;;4290008;33;20664;-64
2021/09/06 08:23:38;;;;;;;2.80;2.30;;;;;;;;;;4290028;33;20549;-64
2021/09/06 08:26:04;;;;;;;4.00;2.50;;;;;;;;;;4290211;33;20122;-64
2021/09/06 08:28:29;;;;;;;3.92;2.45;;;;;;;;;;4289950;33;20537;-64
2021/09/06 08:30:55;;;;;;;4.72;2.35;;;;;;;;;;4288489;33;20594;-64
2021/09/06 08:33:21;;;;;;;3.92;2.35;;;;;;;;;;4289881;33;21218;-63
2021/09/06 08:35:47;;;;;;;3.28;2.20;;;;;;;;;;4294659;33;20119;-65
2021/09/06 08:38:14;;;;;;;3.45;2.00;;;;;;;;;;4289793;33;20538;-64
2021/09/06 08:40:39;;;;;;;2.47;2.00;;;;;;;;;;4294956;33;20104;-64
2021/09/06 08:43:06;;;;;;;2.92;1.98;;;;;;;;;;4290065;33;20115;-64
2021/09/06 08:45:35;;;;;;;2.53;2.17;;;;;;;;;;4289847;33;20453;-64
2021/09/06 08:48:00;;;;;;;2.75;2.03;;;;;;;;;;4290209;33;20274;-64
2021/09/06 08:50:26;;;;;;;2.87;1.90;;;;;;;;;;4290172;33;20111;-64
2021/09/06 08:52:53;;;;;;;2.15;1.60;;;;;;;;;;4289757;33;20581;-64
2021/09/06 08:55:19;;;;;;;2.75;1.98;;;;;;;;;;4289821;33;20093;-66
2021/09/06 08:57:45;;;;;;;3.40;1.98;;;;;;;;;;4289586;33;20122;-64
2021/09/06 09:00:11;;;;;;;10.05;2.85;;;;;;;;;;4290087;33;20608;-65
2021/09/06 09:02:40;;;;;;;3.70;2.22;;;;;;;;;;4291226;33;20134;-63
2021/09/06 09:05:08;;;;;;;5.55;2.70;;;;;;;;;;4300236;33;20115;-73
2021/09/06 09:07:36;;;;;;;7.22;2.78;;;;;;;;;;4289177;33;20112;-67
2021/09/06 09:10:02;;;;;;;4.15;2.00;;;;;;;;;;4291690;33;20135;-63
2021/09/06 09:12:28;;;;;;;3.87;2.05;;;;;;;;;;4288207;33;20124;-63
2021/09/06 09:14:58;;;;;;;2.80;1.58;;;;;;;;;;4283904;33;20168;-63
2021/09/06 09:17:24;;;;;;;2.17;1.65;;;;;;;;;;4287265;33;20112;-64
2021/09/06 09:19:51;;;;;;;3.22;1.62;;;;;;;;;;4285128;33;20123;-63
2021/09/06 09:22:20;;;;;;;2.58;1.75;;;;;;;;;;4298731;33;20119;-63
2021/09/06 09:25:06;;;;;;;3.78;1.70;;;;;;;;;;4286958;33;20115;-64
2021/09/06 09:27:34;;;;;;;2.83;1.20;;;;;;;;;;4288361;33;20531;-62
2021/09/06 09:30:00;;;;;;;1.23;1.12;;;;;;;;;;4282839;33;20387;-65
2021/09/06 09:32:27;;;;;;;1.30;1.20;;;;;;;;;;4283632;33;20122;-64
2021/09/06 09:34:53;;;;;;;3.22;1.45;;;;;;;;;;4288069;33;20137;-65
2021/09/06 09:37:26;;;;;;;1.65;1.40;;;;;;;;;;4285354;33;20535;-66
2021/09/06 09:39:54;;;;;;;4.03;1.42;;;;;;;;;;4286667;33;20188;-65
2021/09/06 09:42:20;;;;;;;6.82;1.50;;;;;;;;;;4286916;33;20114;-65
2021/09/06 09:44:51;;;;;;;2.67;1.40;;;;;;;;;;4285671;33;20135;-65
2021/09/06 09:47:20;;;;;;;1.60;1.50;;;;;;;;;;4286771;33;20158;-65
2021/09/06 09:49:47;;;;;;;1.77;1.60;;;;;;;;;;4286381;33;20111;-65
2021/09/06 09:52:17;;;;;;;2.62;1.35;;;;;;;;;;4288089;33;20524;-64
2021/09/06 09:54:43;;;;;;;1.52;1.42;;;;;;;;;;4289128;33;20119;-65
2021/09/06 09:57:11;;;;;;;2.55;1.58;;;;;;;;;;4288421;33;20112;-65
2021/09/06 09:59:37;;;;;;;1.37;1.27;;;;;;;;;;4291771;33;20435;-65
2021/09/06 10:02:07;;;;;;;1.70;1.40;;;;;;;;;;4288730;33;20201;-65
2021/09/06 10:04:40;;;;;;;1.80;1.50;;;;;;;;;;4288260;33;20114;-65
2021/09/06 10:07:06;;;;;;;1.67;1.50;;;;;;;;;;4300720;33;20170;-66
2021/09/06 10:09:42;;;;;;;1.60;1.42;;;;;;;;;;4289096;33;20116;-66
2021/09/06 10:12:10;;;;;;;1.98;1.60;;;;;;;;;;4289010;33;20542;-66
2021/09/06 10:14:36;;;;;;;1.92;1.50;;;;;;;;;;4289122;33;20166;-65
2021/09/06 10:17:03;;;;;;;1.40;1.30;;;;;;;;;;4288782;33;20119;-65
2021/09/06 10:19:43;;;;;;;2.50;1.27;;;;;;;;;;4287831;33;20096;-66
2021/09/06 10:22:25;;;;;;;1.50;1.40;;;;;;;;;;4289187;33;20526;-66
2021/09/06 10:24:58;;;;;;;1.62;1.30;;;;;;;;;;4289477;33;20519;-65
2021/09/06 10:27:24;;;;;;;1.67;1.25;;;;;;;;;;4289622;33;20115;-65
2021/09/06 10:30:08;;;;;;;3.90;1.40;;;;;;;;;;4288665;33;20112;-65
2021/09/06 10:32:40;;;;;;;3.72;1.60;;;;;;;;;;4288182;33;20129;-65
2021/09/06 10:35:21;;;;;;;2.80;1.77;;;;;;;;;;4287281;33;20110;-65
2021/09/06 10:37:47;;;;;;;1.77;1.67;;;;;;;;;;4289215;33;20100;-65
2021/09/06 10:40:24;;;;;;;1.50;1.40;;;;;;;;;;4287753;33;20107;-65
2021/09/06 10:42:50;;;;;;;2.55;1.58;;;;;;;;;;4287148;33;20479;-63
2021/09/06 10:45:16;;;;;;;1.75;1.60;;;;;;;;;;4286055;33;20121;-64
2021/09/06 10:47:44;;;;;;;2.15;1.30;;;;;;;;;;4277151;33;20127;-64
2021/09/06 10:50:15;;;;;;;1.85;1.50;;;;;;;;;;4282438;33;20551;-64
2021/09/06 10:52:45;;;;;;;2.03;1.60;;;;;;;;;;4287062;33;20092;-64
2021/09/06 10:55:12;;;;;;;4.97;2.00;;;;;;;;;;4275792;33;20449;-66
2021/09/06 10:57:38;;;;;;;1.70;1.40;;;;;;;;;;4287837;33;20111;-65
2021/09/06 11:00:05;;;;;;;1.95;1.75;;;;;;;;;;4287558;33;20104;-65
2021/09/06 11:02:32;;;;;;;2.55;1.60;;;;;;;;;;4287982;33;20547;-65
2021/09/06 11:04:57;;;;;;;3.47;1.40;;;;;;;;;;4280910;33;20107;-65
2021/09/06 11:07:23;;;;;;;1.60;1.50;;;;;;;;;;4274350;33;20547;-65
2021/09/06 11:09:49;;;;;;;4.57;1.60;;;;;;;;;;4284671;33;20124;-64
2021/09/06 11:12:15;;;;;;;2.33;1.70;;;;;;;;;;4286902;33;20306;-65
2021/09/06 11:14:47;;;;;;;1.60;1.50;;;;;;;;;;4287453;33;20104;-65
2021/09/06 11:17:17;;;;;;;1.92;1.45;;;;;;;;;;4288008;33;20127;-65
2021/09/06 11:19:43;;;;;;;4.82;1.60;;;;;;;;;;4288358;33;20119;-65
2021/09/06 11:22:09;;;;;;;0.88;0.88;;;;;;;;;;4288662;33;20115;-64
2021/09/06 11:25:22;;;;;;;1.60;1.50;;;;;;;;;;4271139;33;20080;-69
2021/09/06 11:28:28;;;;;;;1.30;1.20;;;;;;;;;;4275966;33;20195;-67
2021/09/06 11:30:54;;;;;;;3.08;1.67;;;;;;;;;;4287302;33;20506;-65
2021/09/06 11:33:20;;;;;;;1.50;1.40;;;;;;;;;;4286689;33;20135;-65
2021/09/06 11:35:47;;;;;;;2.42;1.48;;;;;;;;;;4271549;33;20120;-65
2021/09/06 11:38:13;;;;;;;3.17;1.60;;;;;;;;;;4284942;33;20111;-65
2021/09/06 11:40:40;;;;;;;3.33;1.60;;;;;;;;;;4285388;33;20116;-65
2021/09/06 11:43:06;;;;;;;1.80;1.65;;;;;;;;;;4272426;33;20552;-65
2021/09/06 11:45:32;;;;;;;1.58;1.48;;;;;;;;;;4283566;33;20108;-65
2021/09/06 11:48:00;;;;;;;1.42;1.33;;;;;;;;;;4286384;33;20206;-65
2021/09/06 11:50:29;;;;;;;1.80;1.40;;;;;;;;;;4275271;33;20160;-65
2021/09/06 11:53:02;;;;;;;1.50;1.40;;;;;;;;;;4288986;33;20167;-65
2021/09/06 11:55:28;;;;;;;2.97;1.40;;;;;;;;;;4277286;33;20103;-66
2021/09/06 11:58:07;;;;;;;1.60;1.50;;;;;;;;;;4290964;33;20563;-66
2021/09/06 12:00:35;;;;;;;2.75;1.25;;;;;;;;;;4291100;33;20180;-66
2021/09/06 12:03:01;;;;;;;1.65;1.45;;;;;;;;;;4291081;33;20487;-66
2021/09/06 12:05:39;;;;;;;2.92;1.48;;;;;;;;;;4277486;33;20099;-66
2021/09/06 12:08:09;;;;;;;1.65;1.42;;;;;;;;;;4290754;33;20122;-66
2021/09/06 12:10:35;;;;;;;2.03;1.55;;;;;;;;;;4290640;33;20225;-66
2021/09/06 12:13:09;;;;;;;1.92;1.60;;;;;;;;;;4290790;33;20206;-65
2021/09/06 12:15:59;;;;;;;2.97;1.55;;;;;;;;;;4277387;33;20507;-65
2021/09/06 12:18:44;;;;;;;4.18;1.92;;;;;;;;;;4282869;33;20130;-65
2021/09/06 12:21:12;;;;;;;1.98;1.50;;;;;;;;;;4290485;33;20115;-65
2021/09/06 12:23:42;;;;;;;3.40;1.80;;;;;;;;;;4277385;33;20209;-66
2021/09/06 12:26:09;;;;;;;2.55;2.00;;;;;;;;;;4289335;33;20112;-65
2021/09/06 12:29:00;;;;;;;1.87;1.67;;;;;;;;;;4288591;33;20108;-65
2021/09/06 12:31:27;;;;;;;1.62;1.50;;;;;;;;;;4288414;33;20107;-65
2021/09/06 12:33:53;;;;;;;3.00;2.05;;;;;;;;;;4290390;33;20103;-65
2021/09/06 12:36:20;;;;;;;3.58;1.80;;;;;;;;;;4290582;33;20133;-64
2021/09/06 12:38:45;;;;;;;1.30;1.20;;;;;;;;;;4265620;33;20111;-64
2021/09/06 12:41:11;;;;;;;1.58;1.40;;;;;;;;;;4290748;33;20130;-64
2021/09/06 12:43:37;;;;;;;3.47;2.08;;;;;;;;;;4290513;33;20202;-64
2021/09/06 12:46:05;;;;;;;1.77;1.58;;;;;;;;;;4290346;33;20131;-65
2021/09/06 12:48:30;;;;;;;1.75;1.52;;;;;;;;;;4290616;33;20096;-65
2021/09/06 12:50:56;;;;;;;1.62;1.45;;;;;;;;;;4290355;33;20108;-64
2021/09/06 12:53:22;;;;;;;1.20;1.10;;;;;;;;;;4290366;33;20084;-65
2021/09/06 12:55:48;;;;;;;1.55;1.20;;;;;;;;;;4290455;33;20115;-64
2021/09/06 12:58:14;;;;;;;2.03;1.40;;;;;;;;;;4290455;33;20206;-65
2021/09/06 13:00:40;;;;;;;2.10;1.62;;;;;;;;;;4290387;33;20206;-65
2021/09/06 13:03:06;;;;;;;2.45;1.60;;;;;;;;;;4276848;33;20128;-65
2021/09/06 13:05:32;;;;;;;3.33;1.75;;;;;;;;;;4276763;33;20095;-65
2021/09/06 13:07:58;;;;;;;2.25;1.80;;;;;;;;;;4290365;33;20112;-64
2021/09/06 13:10:29;;;;;;;2.70;1.70;;;;;;;;;;4290019;33;20267;-64
2021/09/06 13:12:55;;;;;;;3.33;1.98;;;;;;;;;;4290098;33;20116;-64
2021/09/06 13:15:21;;;;;;;3.75;2.25;;;;;;;;;;4290411;33;20107;-64
2021/09/06 13:17:47;;;;;;;7.03;2.83;;;;;;;;;;4289870;33;20112;-65
2021/09/06 13:20:14;;;;;;;4.45;3.25;;;;;;;;;;4288624;33;20562;-63
2021/09/06 13:22:40;;;;;;;6.18;3.12;;;;;;;;;;4290057;33;20127;-66
2021/09/06 13:25:07;;;;;;;7.50;4.82;;;;;;;;;;4285271;33;20213;-65
2021/09/06 13:27:33;;;;;;;5.45;3.37;;;;;;;;;;4289983;33;20116;-65
2021/09/06 13:30:01;;;;;;;7.22;4.28;;;;;;;;;;4290484;33;20107;-64
2021/09/06 13:32:27;;;;;;;11.25;3.75;;;;;;;;;;4290046;33;20585;-64
2021/09/06 13:34:53;;;;;;;4.32;2.75;;;;;;;;;;4300501;33;20122;-64
2021/09/06 13:37:19;;;;;;;4.43;2.78;;;;;;;;;;4289784;33;20125;-64
2021/09/06 13:39:45;;;;;;;5.97;3.80;;;;;;;;;;4288511;33;20210;-65
2021/09/06 13:42:11;;;;;;;6.07;3.22;;;;;;;;;;4300637;33;20555;-64
2021/09/06 13:44:36;;;;;;;7.37;3.70;;;;;;;;;;4290158;33;20130;-65
2021/09/06 13:47:03;;;;;;;7.00;2.92;;;;;;;;;;4289884;33;20099;-65
2021/09/06 13:49:29;;;;;;;4.82;3.53;;;;;;;;;;4289371;33;20108;-64
2021/09/06 13:51:55;;;;;;;5.85;3.17;;;;;;;;;;4290832;33;20120;-63
2021/09/06 13:54:21;;;;;;;4.22;3.10;;;;;;;;;;4289825;33;20411;-64
2021/09/06 13:56:47;;;;;;;9.20;3.78;;;;;;;;;;4289909;33;20201;-64
2021/09/06 13:59:13;;;;;;;5.60;3.22;;;;;;;;;;4290111;33;20127;-64
2021/09/06 14:01:39;;;;;;;4.68;3.50;;;;;;;;;;4299052;33;20607;-64
2021/09/06 14:04:05;;;;;;;10.98;4.60;;;;;;;;;;4288167;33;20465;-64
2021/09/06 14:06:31;;;;;;;11.45;3.65;;;;;;;;;;4287575;33;20107;-63
2021/09/06 14:08:57;;;;;;;8.05;4.10;;;;;;;;;;4288470;33;20126;-63
2021/09/06 14:11:23;;;;;;;8.10;3.62;;;;;;;;;;4287736;33;20127;-63
2021/09/06 14:13:49;;;;;;;10.38;3.50;;;;;;;;;;4288151;33;20149;-64
2021/09/06 14:16:15;;;;;;;7.87;4.03;;;;;;;;;;4298053;33;20417;-63
2021/09/06 14:18:41;;;;;;;6.82;3.62;;;;;;;;;;4288099;33;20324;-64
2021/09/06 14:21:07;;;;;;;7.87;4.30;;;;;;;;;;4274019;33;20116;-64
2021/09/06 14:23:33;;;;;;;9.10;5.55;;;;;;;;;;4288522;33;20119;-64
2021/09/06 14:25:59;;;;;;;7.65;4.10;;;;;;;;;;4287328;33;20131;-66
2021/09/06 14:28:25;;;;;;;6.30;3.65;;;;;;;;;;4274066;33;20112;-66
2021/09/06 14:30:51;;;;;;;6.95;3.92;;;;;;;;;;4287294;33;20491;-66
2021/09/06 14:33:18;;;;;;;4.87;2.60;;;;;;;;;;4274188;33;20107;-66
2021/09/06 14:35:44;;;;;;;5.03;2.00;;;;;;;;;;4289455;33;20521;-66
2021/09/06 14:38:11;;;;;;;3.65;2.90;;;;;;;;;;4289407;33;20538;-66
2021/09/06 14:40:37;;;;;;;4.90;3.10;;;;;;;;;;4289477;33;20118;-66
2021/09/06 14:43:06;;;;;;;5.00;2.92;;;;;;;;;;4276069;33;20126;-65
2021/09/06 14:45:32;;;;;;;3.78;2.55;;;;;;;;;;4276035;33;20104;-64
2021/09/06 14:47:58;;;;;;;3.87;2.78;;;;;;;;;;4275977;33;20112;-64
2021/09/06 14:50:24;;;;;;;5.47;2.60;;;;;;;;;;4289433;33;20457;-65
2021/09/06 14:52:51;;;;;;;4.35;2.35;;;;;;;;;;4289605;33;20131;-64
2021/09/06 14:55:17;;;;;;;5.97;2.28;;;;;;;;;;4289615;33;20107;-63
2021/09/06 14:57:43;;;;;;;3.83;2.25;;;;;;;;;;4289201;33;20103;-63
2021/09/06 15:00:09;;;;;;;3.58;2.55;;;;;;;;;;4275968;33;20172;-63